sensor_id;sensor_type;location;lat;lon;timestamp;P1;durP1;ratioP1;P2;durP2;ratioP2
18754;SDS011;35061;47.664;9.166;2023-05-07T00:00:28;4.00;;;3.70;;
18754;SDS011;35061;47.664;9.166;2023-05-07T00:02:56;4.55;;;4.15;;
18754;SDS011;35061;47.664;9.166;2023-05-07T00:05:24;4.40;;;3.95;;
18754;SDS011;35061;47.664;9.166;2023-05-07T00:07:52;4.78;;;3.90;;
18754;SDS011;35061;47.664;9.166;2023-05-07T00:10:20;5.57;;;4.12;;
18754;SDS011;35061;47.664;9.166;2023-05-07T00:12:48;5.03;;;4.10;;
18754;SDS011;35061;47.664;9.166;2023-05-07T00:15:16;4.82;;;3.80;;
18754;SDS011;35061;47.664;9.166;2023-05-07T00:17:43;4.93;;;3.70;;
18754;SDS011;35061;47.664;9.166;2023-05-07T00:20:12;5.37;;;3.35;;
18754;SDS011;35061;47.664;9.166;2023-05-07T00:22:40;4.40;;;3.80;;
18754;SDS011;35061;47.664;9.166;2023-05-07T00:25:08;5.35;;;4.28;;
18754;SDS011;35061;47.664;9.166;2023-05-07T00:27:36;4.20;;;3.65;;
18754;SDS011;35061;47.664;9.166;2023-05-07T00:30:04;6.43;;;4.50;;
18754;SDS011;35061;47.664;9.166;2023-05-07T00:32:32;4.20;;;3.78;;
18754;SDS011;35061;47.664;9.166;2023-05-07T00:35:00;4.20;;;3.85;;
18754;SDS011;35061;47.664;9.166;2023-05-07T00:37:28;4.85;;;4.25;;
18754;SDS011;35061;47.664;9.166;2023-05-07T00:39:56;4.57;;;4.18;;
18754;SDS011;35061;47.664;9.166;2023-05-07T00:42:24;4.78;;;4.32;;
18754;SDS011;35061;47.664;9.166;2023-05-07T00:44:52;6.87;;;4.32;;
18754;SDS011;35061;47.664;9.166;2023-05-07T00:47:20;6.35;;;4.50;;
18754;SDS011;35061;47.664;9.166;2023-05-07T00:49:48;4.93;;;4.43;;
18754;SDS011;35061;47.664;9.166;2023-05-07T00:52:16;5.72;;;4.57;;
18754;SDS011;35061;47.664;9.166;2023-05-07T00:54:47;6.65;;;3.97;;
18754;SDS011;35061;47.664;9.166;2023-05-07T00:57:15;4.75;;;4.30;;
18754;SDS011;35061;47.664;9.166;2023-05-07T00:59:43;5.75;;;3.92;;
18754;SDS011;35061;47.664;9.166;2023-05-07T01:02:11;4.53;;;3.67;;
18754;SDS011;35061;47.664;9.166;2023-05-07T01:04:39;4.07;;;3.60;;
18754;SDS011;35061;47.664;9.166;2023-05-07T01:07:08;4.78;;;4.07;;
18754;SDS011;35061;47.664;9.166;2023-05-07T01:09:37;4.37;;;3.40;;
18754;SDS011;35061;47.664;9.166;2023-05-07T01:12:06;4.37;;;3.60;;
18754;SDS011;35061;47.664;9.166;2023-05-07T01:14:34;5.25;;;3.50;;
18754;SDS011;35061;47.664;9.166;2023-05-07T01:17:02;5.47;;;3.45;;
18754;SDS011;35061;47.664;9.166;2023-05-07T01:19:30;3.50;;;3.20;;
18754;SDS011;35061;47.664;9.166;2023-05-07T01:22:02;3.50;;;3.00;;
18754;SDS011;35061;47.664;9.166;2023-05-07T01:24:36;4.03;;;3.42;;
18754;SDS011;35061;47.664;9.166;2023-05-07T01:27:04;3.78;;;3.42;;
18754;SDS011;35061;47.664;9.166;2023-05-07T01:29:32;4.32;;;3.12;;
18754;SDS011;35061;47.664;9.166;2023-05-07T01:32:01;6.03;;;3.42;;
18754;SDS011;35061;47.664;9.166;2023-05-07T01:34:31;4.43;;;3.97;;
18754;SDS011;35061;47.664;9.166;2023-05-07T01:37:02;4.72;;;3.40;;
18754;SDS011;35061;47.664;9.166;2023-05-07T01:39:31;4.68;;;3.47;;
18754;SDS011;35061;47.664;9.166;2023-05-07T01:41:59;5.65;;;3.30;;
18754;SDS011;35061;47.664;9.166;2023-05-07T01:44:28;4.00;;;3.50;;
18754;SDS011;35061;47.664;9.166;2023-05-07T01:46:56;3.87;;;3.42;;
18754;SDS011;35061;47.664;9.166;2023-05-07T01:49:25;4.25;;;2.90;;
18754;SDS011;35061;47.664;9.166;2023-05-07T01:51:53;4.37;;;3.42;;
18754;SDS011;35061;47.664;9.166;2023-05-07T01:54:26;6.97;;;3.47;;
18754;SDS011;35061;47.664;9.166;2023-05-07T01:56:56;5.75;;;4.07;;
18754;SDS011;35061;47.664;9.166;2023-05-07T01:59:24;3.85;;;3.45;;
18754;SDS011;35061;47.664;9.166;2023-05-07T02:01:52;5.32;;;3.70;;
18754;SDS011;35061;47.664;9.166;2023-05-07T02:04:20;5.50;;;3.83;;
18754;SDS011;35061;47.664;9.166;2023-05-07T02:06:48;4.65;;;4.20;;
18754;SDS011;35061;47.664;9.166;2023-05-07T02:09:16;5.37;;;4.15;;
18754;SDS011;35061;47.664;9.166;2023-05-07T02:11:44;5.30;;;3.70;;
18754;SDS011;35061;47.664;9.166;2023-05-07T02:14:12;4.30;;;3.90;;
18754;SDS011;35061;47.664;9.166;2023-05-07T02:16:40;4.32;;;3.92;;
18754;SDS011;35061;47.664;9.166;2023-05-07T02:19:09;4.60;;;4.03;;
18754;SDS011;35061;47.664;9.166;2023-05-07T02:21:37;3.87;;;3.47;;
18754;SDS011;35061;47.664;9.166;2023-05-07T02:24:05;5.47;;;4.22;;
18754;SDS011;35061;47.664;9.166;2023-05-07T02:26:33;5.47;;;3.80;;
18754;SDS011;35061;47.664;9.166;2023-05-07T02:29:01;4.95;;;4.18;;
18754;SDS011;35061;47.664;9.166;2023-05-07T02:31:29;3.72;;;3.42;;
18754;SDS011;35061;47.664;9.166;2023-05-07T02:33:57;4.90;;;3.90;;
18754;SDS011;35061;47.664;9.166;2023-05-07T02:36:25;4.18;;;3.70;;
18754;SDS011;35061;47.664;9.166;2023-05-07T02:38:54;4.35;;;3.95;;
18754;SDS011;35061;47.664;9.166;2023-05-07T02:41:22;3.97;;;3.58;;
18754;SDS011;35061;47.664;9.166;2023-05-07T02:43:50;4.20;;;3.80;;
18754;SDS011;35061;47.664;9.166;2023-05-07T02:46:18;3.97;;;3.67;;
18754;SDS011;35061;47.664;9.166;2023-05-07T02:48:46;4.25;;;3.85;;
18754;SDS011;35061;47.664;9.166;2023-05-07T02:51:14;4.82;;;4.28;;
18754;SDS011;35061;47.664;9.166;2023-05-07T02:53:42;5.43;;;3.90;;
18754;SDS011;35061;47.664;9.166;2023-05-07T02:56:09;6.45;;;4.15;;
18754;SDS011;35061;47.664;9.166;2023-05-07T02:58:37;4.43;;;4.05;;
18754;SDS011;35061;47.664;9.166;2023-05-07T03:01:09;4.22;;;3.83;;
18754;SDS011;35061;47.664;9.166;2023-05-07T03:03:37;4.00;;;3.67;;
18754;SDS011;35061;47.664;9.166;2023-05-07T03:06:06;5.72;;;3.70;;
18754;SDS011;35061;47.664;9.166;2023-05-07T03:08:34;5.10;;;3.80;;
18754;SDS011;35061;47.664;9.166;2023-05-07T03:11:02;4.20;;;3.47;;
18754;SDS011;35061;47.664;9.166;2023-05-07T03:13:30;4.30;;;3.90;;
18754;SDS011;35061;47.664;9.166;2023-05-07T03:15:58;4.68;;;4.07;;
18754;SDS011;35061;47.664;9.166;2023-05-07T03:18:25;4.95;;;4.07;;
18754;SDS011;35061;47.664;9.166;2023-05-07T03:20:53;4.03;;;3.62;;
18754;SDS011;35061;47.664;9.166;2023-05-07T03:23:21;4.68;;;4.12;;
18754;SDS011;35061;47.664;9.166;2023-05-07T03:25:50;4.15;;;3.75;;
18754;SDS011;35061;47.664;9.166;2023-05-07T03:28:18;3.95;;;3.55;;
18754;SDS011;35061;47.664;9.166;2023-05-07T03:30:46;4.97;;;4.30;;
18754;SDS011;35061;47.664;9.166;2023-05-07T03:33:14;5.12;;;4.40;;
18754;SDS011;35061;47.664;9.166;2023-05-07T03:35:42;4.45;;;4.05;;
18754;SDS011;35061;47.664;9.166;2023-05-07T03:38:10;6.25;;;4.40;;
18754;SDS011;35061;47.664;9.166;2023-05-07T03:40:38;4.40;;;4.00;;
18754;SDS011;35061;47.664;9.166;2023-05-07T03:43:06;4.32;;;3.92;;
18754;SDS011;35061;47.664;9.166;2023-05-07T03:45:34;4.57;;;4.18;;
18754;SDS011;35061;47.664;9.166;2023-05-07T03:48:03;4.62;;;4.22;;
18754;SDS011;35061;47.664;9.166;2023-05-07T03:50:31;5.53;;;4.45;;
18754;SDS011;35061;47.664;9.166;2023-05-07T03:52:59;8.90;;;4.45;;
18754;SDS011;35061;47.664;9.166;2023-05-07T03:55:27;5.72;;;4.37;;
18754;SDS011;35061;47.664;9.166;2023-05-07T03:57:55;4.30;;;3.90;;
18754;SDS011;35061;47.664;9.166;2023-05-07T04:00:24;4.47;;;4.07;;
18754;SDS011;35061;47.664;9.166;2023-05-07T04:02:51;6.05;;;4.40;;
18754;SDS011;35061;47.664;9.166;2023-05-07T04:05:19;5.45;;;3.90;;
18754;SDS011;35061;47.664;9.166;2023-05-07T04:07:47;5.75;;;4.97;;
18754;SDS011;35061;47.664;9.166;2023-05-07T04:10:15;5.00;;;4.50;;
18754;SDS011;35061;47.664;9.166;2023-05-07T04:12:43;5.72;;;4.55;;
18754;SDS011;35061;47.664;9.166;2023-05-07T04:15:11;5.07;;;3.95;;
18754;SDS011;35061;47.664;9.166;2023-05-07T04:17:39;5.10;;;4.32;;
18754;SDS011;35061;47.664;9.166;2023-05-07T04:20:09;5.28;;;4.25;;
18754;SDS011;35061;47.664;9.166;2023-05-07T04:22:38;4.72;;;4.30;;
18754;SDS011;35061;47.664;9.166;2023-05-07T04:25:06;4.82;;;4.32;;
18754;SDS011;35061;47.664;9.166;2023-05-07T04:27:36;4.90;;;4.40;;
18754;SDS011;35061;47.664;9.166;2023-05-07T04:30:05;5.05;;;3.97;;
18754;SDS011;35061;47.664;9.166;2023-05-07T04:32:34;4.40;;;4.00;;
18754;SDS011;35061;47.664;9.166;2023-05-07T04:35:04;4.68;;;4.28;;
18754;SDS011;35061;47.664;9.166;2023-05-07T04:37:32;4.80;;;4.30;;
18754;SDS011;35061;47.664;9.166;2023-05-07T04:40:00;4.45;;;4.05;;
18754;SDS011;35061;47.664;9.166;2023-05-07T04:42:28;4.78;;;4.37;;
18754;SDS011;35061;47.664;9.166;2023-05-07T04:44:56;5.03;;;4.18;;
18754;SDS011;35061;47.664;9.166;2023-05-07T04:47:24;5.07;;;4.20;;
18754;SDS011;35061;47.664;9.166;2023-05-07T04:49:52;5.57;;;4.62;;
18754;SDS011;35061;47.664;9.166;2023-05-07T04:52:19;7.15;;;4.70;;
18754;SDS011;35061;47.664;9.166;2023-05-07T04:54:47;5.03;;;4.60;;
18754;SDS011;35061;47.664;9.166;2023-05-07T04:57:15;7.55;;;5.40;;
18754;SDS011;35061;47.664;9.166;2023-05-07T04:59:45;6.72;;;5.03;;
18754;SDS011;35061;47.664;9.166;2023-05-07T05:02:13;5.68;;;5.18;;
18754;SDS011;35061;47.664;9.166;2023-05-07T05:04:45;5.35;;;4.85;;
18754;SDS011;35061;47.664;9.166;2023-05-07T05:07:13;8.63;;;4.68;;
18754;SDS011;35061;47.664;9.166;2023-05-07T05:09:41;5.62;;;5.10;;
18754;SDS011;35061;47.664;9.166;2023-05-07T05:12:09;5.10;;;4.35;;
18754;SDS011;35061;47.664;9.166;2023-05-07T05:14:37;5.35;;;4.85;;
18754;SDS011;35061;47.664;9.166;2023-05-07T05:17:05;6.80;;;4.90;;
18754;SDS011;35061;47.664;9.166;2023-05-07T05:19:33;5.00;;;4.47;;
18754;SDS011;35061;47.664;9.166;2023-05-07T05:22:01;4.97;;;4.45;;
18754;SDS011;35061;47.664;9.166;2023-05-07T05:24:31;5.95;;;5.07;;
18754;SDS011;35061;47.664;9.166;2023-05-07T05:26:59;5.28;;;4.75;;
18754;SDS011;35061;47.664;9.166;2023-05-07T05:29:28;5.12;;;4.50;;
18754;SDS011;35061;47.664;9.166;2023-05-07T05:31:57;6.70;;;4.72;;
18754;SDS011;35061;47.664;9.166;2023-05-07T05:34:25;6.40;;;4.78;;
18754;SDS011;35061;47.664;9.166;2023-05-07T05:36:53;5.68;;;5.12;;
18754;SDS011;35061;47.664;9.166;2023-05-07T05:39:21;5.40;;;4.90;;
18754;SDS011;35061;47.664;9.166;2023-05-07T05:41:50;5.55;;;5.05;;
18754;SDS011;35061;47.664;9.166;2023-05-07T05:44:18;6.05;;;4.68;;
18754;SDS011;35061;47.664;9.166;2023-05-07T05:46:46;5.32;;;4.72;;
18754;SDS011;35061;47.664;9.166;2023-05-07T05:49:14;5.80;;;4.53;;
18754;SDS011;35061;47.664;9.166;2023-05-07T05:51:42;7.70;;;4.87;;
18754;SDS011;35061;47.664;9.166;2023-05-07T05:54:11;7.60;;;4.60;;
18754;SDS011;35061;47.664;9.166;2023-05-07T05:56:39;6.82;;;4.75;;
18754;SDS011;35061;47.664;9.166;2023-05-07T05:59:07;5.12;;;4.62;;
18754;SDS011;35061;47.664;9.166;2023-05-07T06:01:35;5.15;;;4.25;;
18754;SDS011;35061;47.664;9.166;2023-05-07T06:04:03;4.80;;;4.40;;
18754;SDS011;35061;47.664;9.166;2023-05-07T06:06:32;6.85;;;4.95;;
18754;SDS011;35061;47.664;9.166;2023-05-07T06:09:00;6.47;;;5.30;;
18754;SDS011;35061;47.664;9.166;2023-05-07T06:11:27;5.62;;;5.03;;
18754;SDS011;35061;47.664;9.166;2023-05-07T06:13:56;5.25;;;4.57;;
18754;SDS011;35061;47.664;9.166;2023-05-07T06:16:24;5.28;;;4.15;;
18754;SDS011;35061;47.664;9.166;2023-05-07T06:18:52;5.90;;;4.68;;
18754;SDS011;35061;47.664;9.166;2023-05-07T06:21:20;6.15;;;5.60;;
18754;SDS011;35061;47.664;9.166;2023-05-07T06:23:48;5.80;;;4.82;;
18754;SDS011;35061;47.664;9.166;2023-05-07T06:26:16;5.32;;;4.82;;
18754;SDS011;35061;47.664;9.166;2023-05-07T06:28:44;6.85;;;4.60;;
18754;SDS011;35061;47.664;9.166;2023-05-07T06:33:40;5.65;;;4.78;;
18754;SDS011;35061;47.664;9.166;2023-05-07T06:36:08;5.53;;;4.68;;
18754;SDS011;35061;47.664;9.166;2023-05-07T06:38:36;5.35;;;4.85;;
18754;SDS011;35061;47.664;9.166;2023-05-07T06:41:05;5.03;;;4.50;;
18754;SDS011;35061;47.664;9.166;2023-05-07T06:43:34;5.50;;;4.95;;
18754;SDS011;35061;47.664;9.166;2023-05-07T06:46:02;4.97;;;4.47;;
18754;SDS011;35061;47.664;9.166;2023-05-07T06:48:31;4.78;;;4.18;;
18754;SDS011;35061;47.664;9.166;2023-05-07T06:50:58;5.40;;;5.00;;
18754;SDS011;35061;47.664;9.166;2023-05-07T06:53:27;4.85;;;4.37;;
18754;SDS011;35061;47.664;9.166;2023-05-07T06:55:56;5.85;;;4.80;;
18754;SDS011;35061;47.664;9.166;2023-05-07T06:58:24;6.12;;;4.90;;
18754;SDS011;35061;47.664;9.166;2023-05-07T07:00:52;5.22;;;4.72;;
18754;SDS011;35061;47.664;9.166;2023-05-07T07:03:20;7.15;;;4.15;;
18754;SDS011;35061;47.664;9.166;2023-05-07T07:05:51;5.22;;;4.72;;
18754;SDS011;35061;47.664;9.166;2023-05-07T07:08:19;5.00;;;4.47;;
18754;SDS011;35061;47.664;9.166;2023-05-07T07:10:48;5.93;;;5.40;;
18754;SDS011;35061;47.664;9.166;2023-05-07T07:13:16;6.85;;;5.35;;
18754;SDS011;35061;47.664;9.166;2023-05-07T07:15:45;7.22;;;4.93;;
18754;SDS011;35061;47.664;9.166;2023-05-07T07:18:13;6.18;;;5.62;;
18754;SDS011;35061;47.664;9.166;2023-05-07T07:20:41;5.75;;;4.93;;
18754;SDS011;35061;47.664;9.166;2023-05-07T07:23:09;6.60;;;5.37;;
18754;SDS011;35061;47.664;9.166;2023-05-07T07:25:37;6.05;;;5.20;;
18754;SDS011;35061;47.664;9.166;2023-05-07T07:28:05;6.20;;;5.47;;
18754;SDS011;35061;47.664;9.166;2023-05-07T07:30:33;6.45;;;5.82;;
18754;SDS011;35061;47.664;9.166;2023-05-07T07:33:01;5.93;;;5.43;;
18754;SDS011;35061;47.664;9.166;2023-05-07T07:35:33;6.40;;;5.80;;
18754;SDS011;35061;47.664;9.166;2023-05-07T07:38:01;5.65;;;5.15;;
18754;SDS011;35061;47.664;9.166;2023-05-07T07:40:29;5.87;;;5.28;;
18754;SDS011;35061;47.664;9.166;2023-05-07T07:42:57;5.85;;;5.35;;
18754;SDS011;35061;47.664;9.166;2023-05-07T07:45:26;7.37;;;6.62;;
18754;SDS011;35061;47.664;9.166;2023-05-07T07:47:54;5.75;;;5.07;;
18754;SDS011;35061;47.664;9.166;2023-05-07T07:50:22;5.95;;;5.35;;
18754;SDS011;35061;47.664;9.166;2023-05-07T07:53:10;14.23;;;11.18;;
18754;SDS011;35061;47.664;9.166;2023-05-07T07:55:38;7.70;;;5.75;;
18754;SDS011;35061;47.664;9.166;2023-05-07T07:58:07;10.63;;;9.52;;
18754;SDS011;35061;47.664;9.166;2023-05-07T08:00:35;5.97;;;5.47;;
18754;SDS011;35061;47.664;9.166;2023-05-07T08:03:04;7.12;;;6.43;;
18754;SDS011;35061;47.664;9.166;2023-05-07T08:05:32;5.97;;;5.30;;
18754;SDS011;35061;47.664;9.166;2023-05-07T08:08:00;7.47;;;6.47;;
18754;SDS011;35061;47.664;9.166;2023-05-07T08:10:28;7.35;;;5.60;;
18754;SDS011;35061;47.664;9.166;2023-05-07T08:12:58;6.95;;;5.47;;
18754;SDS011;35061;47.664;9.166;2023-05-07T08:15:26;6.32;;;5.47;;
18754;SDS011;35061;47.664;9.166;2023-05-07T08:17:54;5.18;;;4.68;;
18754;SDS011;35061;47.664;9.166;2023-05-07T08:20:24;7.37;;;5.45;;
18754;SDS011;35061;47.664;9.166;2023-05-07T08:22:53;6.12;;;4.75;;
18754;SDS011;35061;47.664;9.166;2023-05-07T08:25:21;5.45;;;4.80;;
18754;SDS011;35061;47.664;9.166;2023-05-07T08:27:49;4.95;;;4.50;;
18754;SDS011;35061;47.664;9.166;2023-05-07T08:30:17;4.90;;;4.47;;
18754;SDS011;35061;47.664;9.166;2023-05-07T08:32:45;4.90;;;4.50;;
18754;SDS011;35061;47.664;9.166;2023-05-07T08:35:13;5.00;;;4.50;;
18754;SDS011;35061;47.664;9.166;2023-05-07T08:37:41;4.20;;;3.85;;
18754;SDS011;35061;47.664;9.166;2023-05-07T08:40:09;7.78;;;4.85;;
18754;SDS011;35061;47.664;9.166;2023-05-07T08:42:39;4.72;;;4.32;;
18754;SDS011;35061;47.664;9.166;2023-05-07T08:45:09;5.70;;;4.95;;
18754;SDS011;35061;47.664;9.166;2023-05-07T08:47:45;5.22;;;4.62;;
18754;SDS011;35061;47.664;9.166;2023-05-07T08:50:14;6.25;;;4.97;;
18754;SDS011;35061;47.664;9.166;2023-05-07T08:52:43;6.03;;;4.40;;
18754;SDS011;35061;47.664;9.166;2023-05-07T08:55:11;4.40;;;4.07;;
18754;SDS011;35061;47.664;9.166;2023-05-07T08:57:40;4.68;;;4.28;;
18754;SDS011;35061;47.664;9.166;2023-05-07T09:00:08;5.45;;;4.37;;
18754;SDS011;35061;47.664;9.166;2023-05-07T09:02:37;4.85;;;4.28;;
18754;SDS011;35061;47.664;9.166;2023-05-07T09:05:05;3.95;;;3.60;;
18754;SDS011;35061;47.664;9.166;2023-05-07T09:07:34;4.20;;;3.80;;
18754;SDS011;35061;47.664;9.166;2023-05-07T09:10:02;3.15;;;2.42;;
18754;SDS011;35061;47.664;9.166;2023-05-07T09:12:31;6.20;;;3.42;;
18754;SDS011;35061;47.664;9.166;2023-05-07T09:15:00;4.93;;;3.85;;
18754;SDS011;35061;47.664;9.166;2023-05-07T09:17:29;5.07;;;3.58;;
18754;SDS011;35061;47.664;9.166;2023-05-07T09:20:04;3.62;;;3.33;;
18754;SDS011;35061;47.664;9.166;2023-05-07T09:22:36;3.15;;;2.80;;
18754;SDS011;35061;47.664;9.166;2023-05-07T09:25:06;5.15;;;3.05;;
18754;SDS011;35061;47.664;9.166;2023-05-07T09:27:35;3.25;;;2.95;;
18754;SDS011;35061;47.664;9.166;2023-05-07T09:30:04;2.60;;;2.40;;
18754;SDS011;35061;47.664;9.166;2023-05-07T09:32:35;2.80;;;2.60;;
18754;SDS011;35061;47.664;9.166;2023-05-07T09:35:05;2.53;;;2.33;;
18754;SDS011;35061;47.664;9.166;2023-05-07T09:37:41;3.00;;;2.28;;
18754;SDS011;35061;47.664;9.166;2023-05-07T09:40:19;3.62;;;2.70;;
18754;SDS011;35061;47.664;9.166;2023-05-07T09:42:49;3.58;;;2.95;;
18754;SDS011;35061;47.664;9.166;2023-05-07T09:45:28;3.08;;;2.80;;
18754;SDS011;35061;47.664;9.166;2023-05-07T09:47:57;3.17;;;2.62;;
18754;SDS011;35061;47.664;9.166;2023-05-07T09:50:27;4.25;;;3.53;;
18754;SDS011;35061;47.664;9.166;2023-05-07T09:52:56;3.80;;;3.50;;
18754;SDS011;35061;47.664;9.166;2023-05-07T09:55:24;4.85;;;4.45;;
18754;SDS011;35061;47.664;9.166;2023-05-07T09:57:53;7.20;;;5.35;;
18754;SDS011;35061;47.664;9.166;2023-05-07T10:00:23;5.35;;;4.35;;
18754;SDS011;35061;47.664;9.166;2023-05-07T10:02:53;5.22;;;4.82;;
18754;SDS011;35061;47.664;9.166;2023-05-07T10:05:24;5.18;;;4.25;;
18754;SDS011;35061;47.664;9.166;2023-05-07T10:07:53;6.00;;;4.62;;
18754;SDS011;35061;47.664;9.166;2023-05-07T10:10:22;6.25;;;5.65;;
18754;SDS011;35061;47.664;9.166;2023-05-07T10:12:51;6.35;;;5.35;;
18754;SDS011;35061;47.664;9.166;2023-05-07T10:15:20;5.47;;;4.97;;
18754;SDS011;35061;47.664;9.166;2023-05-07T10:17:49;5.35;;;4.85;;
18754;SDS011;35061;47.664;9.166;2023-05-07T10:20:17;5.70;;;5.20;;
18754;SDS011;35061;47.664;9.166;2023-05-07T10:22:48;4.82;;;4.32;;
18754;SDS011;35061;47.664;9.166;2023-05-07T10:25:17;5.30;;;4.80;;
18754;SDS011;35061;47.664;9.166;2023-05-07T10:27:57;4.62;;;4.20;;
18754;SDS011;35061;47.664;9.166;2023-05-07T10:33:04;5.05;;;4.62;;
18754;SDS011;35061;47.664;9.166;2023-05-07T10:35:39;5.72;;;5.22;;
18754;SDS011;35061;47.664;9.166;2023-05-07T10:38:10;5.68;;;5.18;;
18754;SDS011;35061;47.664;9.166;2023-05-07T10:40:38;5.37;;;4.87;;
18754;SDS011;35061;47.664;9.166;2023-05-07T10:43:07;5.40;;;4.95;;
18754;SDS011;35061;47.664;9.166;2023-05-07T10:45:36;4.90;;;4.50;;
18754;SDS011;35061;47.664;9.166;2023-05-07T10:48:08;5.87;;;5.32;;
18754;SDS011;35061;47.664;9.166;2023-05-07T10:51:17;6.10;;;5.50;;
18754;SDS011;35061;47.664;9.166;2023-05-07T10:54:02;4.97;;;4.47;;
18754;SDS011;35061;47.664;9.166;2023-05-07T10:56:37;6.78;;;5.93;;
18754;SDS011;35061;47.664;9.166;2023-05-07T11:04:33;7.57;;;5.60;;
18754;SDS011;35061;47.664;9.166;2023-05-07T11:15:06;5.90;;;5.32;;
18754;SDS011;35061;47.664;9.166;2023-05-07T11:28:30;6.65;;;6.03;;
18754;SDS011;35061;47.664;9.166;2023-05-07T11:31:03;6.87;;;6.12;;
18754;SDS011;35061;47.664;9.166;2023-05-07T11:33:32;6.45;;;5.57;;
18754;SDS011;35061;47.664;9.166;2023-05-07T11:36:01;6.32;;;5.72;;
18754;SDS011;35061;47.664;9.166;2023-05-07T11:38:34;6.75;;;6.12;;
18754;SDS011;35061;47.664;9.166;2023-05-07T11:41:03;6.37;;;5.82;;
18754;SDS011;35061;47.664;9.166;2023-05-07T11:43:34;5.18;;;4.68;;
18754;SDS011;35061;47.664;9.166;2023-05-07T11:46:08;7.20;;;5.60;;
18754;SDS011;35061;47.664;9.166;2023-05-07T11:48:37;6.93;;;5.90;;
18754;SDS011;35061;47.664;9.166;2023-05-07T11:51:06;6.20;;;5.47;;
18754;SDS011;35061;47.664;9.166;2023-05-07T11:53:40;6.45;;;5.82;;
18754;SDS011;35061;47.664;9.166;2023-05-07T11:56:11;7.05;;;6.45;;
18754;SDS011;35061;47.664;9.166;2023-05-07T11:58:40;6.82;;;6.22;;
18754;SDS011;35061;47.664;9.166;2023-05-07T12:01:10;8.13;;;6.50;;
18754;SDS011;35061;47.664;9.166;2023-05-07T12:03:40;6.78;;;5.75;;
18754;SDS011;35061;47.664;9.166;2023-05-07T12:06:10;7.80;;;5.70;;
18754;SDS011;35061;47.664;9.166;2023-05-07T12:08:40;5.85;;;5.30;;
18754;SDS011;35061;47.664;9.166;2023-05-07T12:11:13;6.72;;;6.07;;
18754;SDS011;35061;47.664;9.166;2023-05-07T12:13:44;6.57;;;5.97;;
18754;SDS011;35061;47.664;9.166;2023-05-07T12:16:13;5.87;;;5.28;;
18754;SDS011;35061;47.664;9.166;2023-05-07T12:18:41;6.32;;;5.00;;
18754;SDS011;35061;47.664;9.166;2023-05-07T12:21:10;5.43;;;4.93;;
18754;SDS011;35061;47.664;9.166;2023-05-07T12:23:39;6.05;;;5.25;;
18754;SDS011;35061;47.664;9.166;2023-05-07T12:26:07;6.68;;;4.93;;
18754;SDS011;35061;47.664;9.166;2023-05-07T12:28:36;4.97;;;4.57;;
18754;SDS011;35061;47.664;9.166;2023-05-07T12:31:08;6.50;;;5.05;;
18754;SDS011;35061;47.664;9.166;2023-05-07T12:33:36;4.68;;;4.22;;
18754;SDS011;35061;47.664;9.166;2023-05-07T12:36:05;4.45;;;4.05;;
18754;SDS011;35061;47.664;9.166;2023-05-07T12:38:35;4.12;;;3.72;;
18754;SDS011;35061;47.664;9.166;2023-05-07T12:41:05;4.47;;;4.07;;
18754;SDS011;35061;47.664;9.166;2023-05-07T12:43:34;4.12;;;3.80;;
18754;SDS011;35061;47.664;9.166;2023-05-07T12:46:06;4.68;;;4.10;;
18754;SDS011;35061;47.664;9.166;2023-05-07T12:48:36;4.93;;;3.83;;
18754;SDS011;35061;47.664;9.166;2023-05-07T12:51:05;4.65;;;3.67;;
18754;SDS011;35061;47.664;9.166;2023-05-07T12:53:39;4.45;;;4.05;;
18754;SDS011;35061;47.664;9.166;2023-05-07T12:56:08;4.47;;;3.65;;
18754;SDS011;35061;47.664;9.166;2023-05-07T12:58:36;4.82;;;3.08;;
18754;SDS011;35061;47.664;9.166;2023-05-07T13:01:05;4.75;;;3.90;;
18754;SDS011;35061;47.664;9.166;2023-05-07T13:03:35;4.62;;;3.03;;
18754;SDS011;35061;47.664;9.166;2023-05-07T13:06:06;3.35;;;3.10;;
18754;SDS011;35061;47.664;9.166;2023-05-07T13:08:40;2.97;;;2.67;;
18754;SDS011;35061;47.664;9.166;2023-05-07T13:11:11;5.20;;;3.40;;
18754;SDS011;35061;47.664;9.166;2023-05-07T13:13:40;3.22;;;2.90;;
18754;SDS011;35061;47.664;9.166;2023-05-07T13:16:09;4.15;;;2.97;;
18754;SDS011;35061;47.664;9.166;2023-05-07T13:18:39;2.72;;;2.53;;
18754;SDS011;35061;47.664;9.166;2023-05-07T13:21:08;3.12;;;2.83;;
18754;SDS011;35061;47.664;9.166;2023-05-07T13:23:37;3.70;;;2.90;;
18754;SDS011;35061;47.664;9.166;2023-05-07T13:26:06;2.75;;;2.55;;
18754;SDS011;35061;47.664;9.166;2023-05-07T13:28:52;2.90;;;2.70;;
18754;SDS011;35061;47.664;9.166;2023-05-07T13:31:21;2.47;;;2.28;;
18754;SDS011;35061;47.664;9.166;2023-05-07T13:33:49;2.87;;;2.67;;
18754;SDS011;35061;47.664;9.166;2023-05-07T13:36:17;2.78;;;2.05;;
18754;SDS011;35061;47.664;9.166;2023-05-07T13:38:45;4.62;;;2.45;;
18754;SDS011;35061;47.664;9.166;2023-05-07T13:41:14;4.35;;;2.22;;
18754;SDS011;35061;47.664;9.166;2023-05-07T13:43:42;2.42;;;2.22;;
18754;SDS011;35061;47.664;9.166;2023-05-07T13:46:10;4.37;;;2.10;;
18754;SDS011;35061;47.664;9.166;2023-05-07T13:48:38;2.75;;;2.47;;
18754;SDS011;35061;47.664;9.166;2023-05-07T13:51:06;2.80;;;2.58;;
18754;SDS011;35061;47.664;9.166;2023-05-07T13:53:34;2.20;;;2.00;;
18754;SDS011;35061;47.664;9.166;2023-05-07T13:56:03;2.83;;;2.50;;
18754;SDS011;35061;47.664;9.166;2023-05-07T13:58:32;2.80;;;2.30;;
18754;SDS011;35061;47.664;9.166;2023-05-07T14:01:01;2.72;;;2.40;;
18754;SDS011;35061;47.664;9.166;2023-05-07T14:03:29;3.55;;;2.70;;
18754;SDS011;35061;47.664;9.166;2023-05-07T14:05:59;2.97;;;2.50;;
18754;SDS011;35061;47.664;9.166;2023-05-07T14:08:28;2.45;;;2.25;;
18754;SDS011;35061;47.664;9.166;2023-05-07T14:10:57;3.62;;;2.30;;
18754;SDS011;35061;47.664;9.166;2023-05-07T14:13:25;3.97;;;2.50;;
18754;SDS011;35061;47.664;9.166;2023-05-07T14:15:54;3.58;;;2.37;;
18754;SDS011;35061;47.664;9.166;2023-05-07T14:18:22;2.55;;;2.33;;
18754;SDS011;35061;47.664;9.166;2023-05-07T14:20:50;4.07;;;2.35;;
18754;SDS011;35061;47.664;9.166;2023-05-07T14:23:18;3.25;;;2.10;;
18754;SDS011;35061;47.664;9.166;2023-05-07T14:25:47;4.35;;;1.90;;
18754;SDS011;35061;47.664;9.166;2023-05-07T14:28:15;1.90;;;1.65;;
18754;SDS011;35061;47.664;9.166;2023-05-07T14:30:43;3.58;;;1.70;;
18754;SDS011;35061;47.664;9.166;2023-05-07T14:33:11;3.42;;;1.60;;
18754;SDS011;35061;47.664;9.166;2023-05-07T14:35:39;2.05;;;1.85;;
18754;SDS011;35061;47.664;9.166;2023-05-07T14:38:07;2.08;;;1.95;;
18754;SDS011;35061;47.664;9.166;2023-05-07T14:40:35;5.93;;;1.77;;
18754;SDS011;35061;47.664;9.166;2023-05-07T14:43:02;1.87;;;1.50;;
18754;SDS011;35061;47.664;9.166;2023-05-07T14:45:30;1.87;;;1.67;;
18754;SDS011;35061;47.664;9.166;2023-05-07T14:47:58;1.50;;;1.40;;
18754;SDS011;35061;47.664;9.166;2023-05-07T14:50:26;1.52;;;1.42;;
18754;SDS011;35061;47.664;9.166;2023-05-07T14:52:54;2.92;;;1.92;;
18754;SDS011;35061;47.664;9.166;2023-05-07T14:55:22;2.70;;;1.70;;
18754;SDS011;35061;47.664;9.166;2023-05-07T14:57:50;2.17;;;1.62;;
18754;SDS011;35061;47.664;9.166;2023-05-07T15:00:18;1.50;;;1.40;;
18754;SDS011;35061;47.664;9.166;2023-05-07T15:02:47;1.50;;;1.35;;
18754;SDS011;35061;47.664;9.166;2023-05-07T15:05:15;1.87;;;1.12;;
18754;SDS011;35061;47.664;9.166;2023-05-07T15:07:43;4.60;;;1.20;;
18754;SDS011;35061;47.664;9.166;2023-05-07T15:10:12;1.95;;;1.50;;
18754;SDS011;35061;47.664;9.166;2023-05-07T15:12:40;2.20;;;1.27;;
18754;SDS011;35061;47.664;9.166;2023-05-07T15:15:08;2.60;;;1.20;;
18754;SDS011;35061;47.664;9.166;2023-05-07T15:17:37;1.45;;;1.23;;
18754;SDS011;35061;47.664;9.166;2023-05-07T15:20:05;1.20;;;1.10;;
18754;SDS011;35061;47.664;9.166;2023-05-07T15:22:34;1.23;;;1.15;;
18754;SDS011;35061;47.664;9.166;2023-05-07T15:25:06;1.50;;;1.40;;
18754;SDS011;35061;47.664;9.166;2023-05-07T15:27:35;2.50;;;1.60;;